createdAt,value
2023-03-13T00:02:07.269Z,91.37
2023-03-13T00:04:35.140Z,91.47
2023-03-13T00:07:03.182Z,91.65
2023-03-13T00:09:32.441Z,91.71
2023-03-13T00:12:00.239Z,91.41
2023-03-13T00:14:27.958Z,91.35
2023-03-13T00:16:55.780Z,91.19
2023-03-13T00:19:23.658Z,91.04
2023-03-13T00:21:51.458Z,91.13
2023-03-13T00:24:19.416Z,90.82
2023-03-13T00:26:48.600Z,91.40
2023-03-13T00:29:16.424Z,91.33
2023-03-13T00:31:44.331Z,91.11
2023-03-13T00:34:12.268Z,91.69
2023-03-13T00:36:40.084Z,91.63
2023-03-13T00:39:08.133Z,91.79
2023-03-13T00:41:37.302Z,91.89
2023-03-13T00:44:08.131Z,91.80
2023-03-13T00:46:36.639Z,91.58
2023-03-13T00:49:04.981Z,91.40
2023-03-13T00:51:35.578Z,91.42
2023-03-13T00:54:04.787Z,91.79
2023-03-13T00:56:33.796Z,91.32
2023-03-13T00:59:02.207Z,91.39
2023-03-13T01:01:32.670Z,91.48
2023-03-13T01:04:03.402Z,91.26
2023-03-13T01:06:34.129Z,90.90
2023-03-13T01:09:02.280Z,90.93
2023-03-13T01:11:31.834Z,90.79
2023-03-13T01:14:01.324Z,90.87
2023-03-13T01:16:31.758Z,90.77
2023-03-13T01:19:01.878Z,90.52
2023-03-13T01:21:30.145Z,90.62
2023-03-13T01:23:58.697Z,90.79
2023-03-13T01:26:27.396Z,90.45
2023-03-13T01:28:55.368Z,90.18
2023-03-13T01:31:25.052Z,90.67
2023-03-13T01:33:56.003Z,89.86
2023-03-13T01:36:24.004Z,90.29
2023-03-13T01:38:53.271Z,90.04
2023-03-13T01:41:22.271Z,89.99
2023-03-13T01:43:50.372Z,89.47
2023-03-13T01:46:19.914Z,89.73
2023-03-13T01:49:07.092Z,89.70
2023-03-13T01:51:43.663Z,90.44
2023-03-13T01:54:14.779Z,90.46
2023-03-13T01:56:46.526Z,89.89
2023-03-13T01:59:18.216Z,90.12
2023-03-13T02:01:47.697Z,89.85
2023-03-13T02:04:17.951Z,89.52
2023-03-13T02:06:48.275Z,90.14
2023-03-13T02:09:19.858Z,90.02
2023-03-13T02:11:51.113Z,89.76
2023-03-13T02:14:22.245Z,89.26
2023-03-13T02:16:52.007Z,89.60
2023-03-13T02:19:28.320Z,89.79
2023-03-13T02:22:04.159Z,90.38
2023-03-13T02:24:36.179Z,89.82
2023-03-13T02:27:05.638Z,89.81
2023-03-13T02:29:37.280Z,90.01
2023-03-13T02:32:05.447Z,90.21
2023-03-13T02:34:35.025Z,90.57
2023-03-13T02:37:05.532Z,90.49
2023-03-13T02:39:34.252Z,90.74
2023-03-13T02:42:02.951Z,90.16
2023-03-13T02:44:32.838Z,90.74
2023-03-13T02:47:00.749Z,90.16
2023-03-13T02:49:30.305Z,90.44
2023-03-13T02:52:01.519Z,90.96
2023-03-13T02:54:32.855Z,90.48
2023-03-13T02:57:03.435Z,90.84
2023-03-13T02:59:33.671Z,90.69
2023-03-13T03:02:01.607Z,91.04
2023-03-13T03:04:29.471Z,90.39
2023-03-13T03:06:57.785Z,90.77
2023-03-13T03:09:26.224Z,90.83
2023-03-13T03:11:58.655Z,90.63
2023-03-13T03:14:28.920Z,90.79
2023-03-13T03:16:58.940Z,90.28
2023-03-13T03:19:27.888Z,90.02
2023-03-13T03:21:55.779Z,89.98
2023-03-13T03:24:23.544Z,89.86
2023-03-13T03:26:51.422Z,90.07
2023-03-13T03:29:27.712Z,90.13
2023-03-13T03:31:56.870Z,90.05
2023-03-13T03:34:26.729Z,90.07
2023-03-13T03:36:56.240Z,89.77
2023-03-13T03:39:24.061Z,89.71
2023-03-13T03:41:52.157Z,89.76
2023-03-13T03:44:20.165Z,89.69
2023-03-13T03:46:53.680Z,89.86
2023-03-13T03:49:22.901Z,90.47
2023-03-13T03:51:52.350Z,90.58
2023-03-13T03:54:25.914Z,90.41
2023-03-13T03:56:53.732Z,90.20
2023-03-13T03:59:21.629Z,90.61
2023-03-13T04:01:56.145Z,90.69
2023-03-13T04:04:26.413Z,90.71
2023-03-13T04:07:04.264Z,90.69
2023-03-13T04:09:33.183Z,90.09
2023-03-13T04:12:02.974Z,90.33
2023-03-13T04:14:35.567Z,90.20
2023-03-13T04:17:06.645Z,89.60
2023-03-13T04:19:34.729Z,89.92
2023-03-13T04:22:04.028Z,89.95
2023-03-13T04:24:32.279Z,90.05
2023-03-13T04:27:01.639Z,90.13
2023-03-13T04:29:29.875Z,90.01
2023-03-13T04:32:05.994Z,89.97
2023-03-13T04:34:56.740Z,89.72
2023-03-13T04:37:40.004Z,90.59
2023-03-13T04:40:09.093Z,90.48
2023-03-13T04:42:56.154Z,90.10
2023-03-13T04:45:46.946Z,90.00
2023-03-13T04:48:29.258Z,90.61
2023-03-13T04:51:09.008Z,90.43
2023-03-13T04:54:01.144Z,90.34
2023-03-13T04:56:43.922Z,89.73
2023-03-13T04:59:27.119Z,89.65
2023-03-13T05:02:15.245Z,89.52
2023-03-13T05:05:03.507Z,89.10
2023-03-13T05:07:53.839Z,89.13
2023-03-13T05:10:52.102Z,89.25
2023-03-13T05:13:46.168Z,89.84
2023-03-13T05:16:28.919Z,89.77
2023-03-13T05:19:17.054Z,90.00
2023-03-13T05:22:02.709Z,89.78
2023-03-13T05:24:49.342Z,90.09
2023-03-13T05:27:38.753Z,89.82
2023-03-13T05:30:16.530Z,90.23
2023-03-13T05:32:54.743Z,90.24
2023-03-13T05:35:43.715Z,90.61
2023-03-13T05:38:28.223Z,91.29
2023-03-13T05:41:17.619Z,91.38
2023-03-13T05:44:21.906Z,92.13
2023-03-13T05:47:08.577Z,92.12
2023-03-13T05:49:49.787Z,92.11
2023-03-13T05:52:52.371Z,93.17
2023-03-13T05:55:49.496Z,92.67
2023-03-13T05:58:35.754Z,92.63
2023-03-13T06:01:28.186Z,93.11
2023-03-13T06:04:04.701Z,92.98
2023-03-13T06:06:35.750Z,92.67
2023-03-13T06:09:04.262Z,92.59
2023-03-13T06:11:34.503Z,92.68
2023-03-13T06:14:03.435Z,92.74
2023-03-13T06:16:40.940Z,93.26
2023-03-13T06:19:29.018Z,92.97
2023-03-13T06:21:56.809Z,92.87
2023-03-13T06:24:24.694Z,93.32
2023-03-13T06:26:52.535Z,93.13
2023-03-13T06:29:20.398Z,92.74
2023-03-13T06:31:49.779Z,93.03
2023-03-13T06:34:17.833Z,93.46
2023-03-13T06:36:45.847Z,93.80
2023-03-13T06:39:14.035Z,93.86
2023-03-13T06:41:41.924Z,94.02
2023-03-13T06:44:09.882Z,94.59
2023-03-13T06:46:37.795Z,93.94
2023-03-13T06:49:07.069Z,94.30
2023-03-13T06:51:34.889Z,94.01
2023-03-13T06:54:03.045Z,94.56
2023-03-13T06:56:30.892Z,95.26
2023-03-13T06:58:59.948Z,95.58
2023-03-13T07:01:28.039Z,95.12
2023-03-13T07:03:55.935Z,94.84
2023-03-13T07:06:25.228Z,95.31
2023-03-13T07:08:53.030Z,95.50
2023-03-13T07:11:20.870Z,95.10
2023-03-13T07:13:48.662Z,95.12
2023-03-13T07:16:16.710Z,94.43
2023-03-13T07:18:45.439Z,95.02
2023-03-13T07:21:13.579Z,94.47
2023-03-13T07:23:44.874Z,94.81
2023-03-13T07:26:13.996Z,95.13
2023-03-13T07:28:42.121Z,94.90
2023-03-13T07:31:12.830Z,94.95
2023-03-13T07:33:40.849Z,94.96
2023-03-13T07:36:09.604Z,95.14
2023-03-13T07:38:37.678Z,95.04
2023-03-13T07:41:07.363Z,95.25
2023-03-13T07:43:35.199Z,95.86
2023-03-13T07:46:04.564Z,95.66
2023-03-13T07:48:34.418Z,95.83
2023-03-13T07:51:02.504Z,95.53
2023-03-13T07:53:30.829Z,95.72
2023-03-13T07:56:00.011Z,95.62
2023-03-13T07:58:30.764Z,95.64
2023-03-13T08:00:58.931Z,95.66
2023-03-13T08:03:27.376Z,95.31
2023-03-13T08:05:59.439Z,95.02
2023-03-13T08:08:27.380Z,95.34
2023-03-13T08:10:55.247Z,95.48
2023-03-13T08:13:22.992Z,95.29
2023-03-13T08:15:52.271Z,95.51
2023-03-13T08:18:20.151Z,95.66
2023-03-13T08:20:48.024Z,96.06
2023-03-13T08:23:15.829Z,95.76
2023-03-13T08:25:43.679Z,96.06
2023-03-13T08:28:12.446Z,96.23
2023-03-13T08:30:40.310Z,96.36
2023-03-13T08:33:09.453Z,96.39
2023-03-13T08:35:37.334Z,96.69
2023-03-13T08:38:06.928Z,96.76
2023-03-13T08:40:34.767Z,96.89
2023-03-13T08:43:05.040Z,96.24
2023-03-13T08:45:32.832Z,96.65
2023-03-13T08:48:00.846Z,97.21
2023-03-13T08:50:29.967Z,96.60
2023-03-13T08:52:57.760Z,96.70
2023-03-13T08:55:26.552Z,96.81
2023-03-13T08:57:54.509Z,96.53
2023-03-13T09:00:23.366Z,96.65
2023-03-13T09:02:51.204Z,96.56
2023-03-13T09:05:19.200Z,96.50
2023-03-13T09:07:48.346Z,96.55
2023-03-13T09:10:16.640Z,96.40
2023-03-13T09:12:46.995Z,96.32
2023-03-13T09:15:16.189Z,95.99
2023-03-13T09:17:43.959Z,95.93
2023-03-13T09:20:12.738Z,95.68
2023-03-13T09:22:40.621Z,95.21
2023-03-13T09:25:10.572Z,94.83
2023-03-13T09:27:38.400Z,94.41
2023-03-13T09:30:07.318Z,94.81
2023-03-13T09:32:35.466Z,94.84
2023-03-13T09:35:03.377Z,94.93
2023-03-13T09:37:31.191Z,94.38
2023-03-13T09:39:59.663Z,94.44
2023-03-13T09:42:35.741Z,95.08
2023-03-13T09:45:07.309Z,95.34
2023-03-13T09:47:41.866Z,95.22
2023-03-13T09:50:13.270Z,95.33
2023-03-13T09:52:42.205Z,95.14
2023-03-13T09:55:15.416Z,95.36
2023-03-13T09:57:47.810Z,95.23
2023-03-13T10:00:18.915Z,95.45
2023-03-13T10:02:47.811Z,94.42
2023-03-13T10:05:18.794Z,94.23
2023-03-13T10:07:46.667Z,94.29
2023-03-13T10:10:17.958Z,94.15
2023-03-13T10:12:48.953Z,93.96
2023-03-13T10:15:30.429Z,94.14
2023-03-13T10:18:00.496Z,93.87
2023-03-13T10:20:30.010Z,94.24
2023-03-13T10:23:01.908Z,94.78
2023-03-13T10:25:31.902Z,94.76
2023-03-13T10:28:01.157Z,94.22
2023-03-13T10:30:30.741Z,94.02
2023-03-13T10:33:00.722Z,93.95
2023-03-13T10:35:33.867Z,93.30
2023-03-13T10:38:06.029Z,92.54
2023-03-13T10:40:34.122Z,93.22
2023-03-13T10:43:05.083Z,92.08
2023-03-13T10:45:35.819Z,91.77
2023-03-13T10:48:05.975Z,91.60
2023-03-13T10:50:34.930Z,91.29
2023-03-13T10:53:14.125Z,90.60
2023-03-13T10:55:44.151Z,90.42
2023-03-13T10:58:19.687Z,89.12
2023-03-13T11:00:47.689Z,88.79
2023-03-13T11:03:18.858Z,87.85
2023-03-13T11:05:56.424Z,87.12
2023-03-13T11:08:26.247Z,86.50
2023-03-13T11:10:56.897Z,86.37
2023-03-13T11:13:37.648Z,87.96
2023-03-13T11:16:21.155Z,87.15
2023-03-13T11:18:58.536Z,84.92
2023-03-13T11:21:33.750Z,80.69
2023-03-13T11:24:07.301Z,79.44
2023-03-13T11:26:38.321Z,82.91
2023-03-13T11:29:12.863Z,80.26
2023-03-13T11:31:42.765Z,79.60
2023-03-13T11:34:19.941Z,80.52
2023-03-13T11:36:54.122Z,81.15
2023-03-13T11:39:41.372Z,80.93
2023-03-13T11:42:17.596Z,80.66
2023-03-13T11:44:55.755Z,80.51
2023-03-13T11:47:37.996Z,80.13
2023-03-13T11:50:20.969Z,79.97
2023-03-13T11:53:11.137Z,79.49
2023-03-13T11:55:45.466Z,79.72
2023-03-13T11:58:47.401Z,80.52
2023-03-13T12:01:18.671Z,80.78
2023-03-13T12:03:57.429Z,80.13
2023-03-13T12:06:28.758Z,80.45
2023-03-13T12:09:00.490Z,80.04
2023-03-13T12:11:30.986Z,79.93
2023-03-13T12:14:00.983Z,79.74
2023-03-13T12:16:39.551Z,79.00
2023-03-13T12:19:11.743Z,78.20
2023-03-13T12:21:43.895Z,76.97
2023-03-13T12:24:14.471Z,77.40
2023-03-13T12:26:45.650Z,77.25
2023-03-13T12:29:17.721Z,77.29
2023-03-13T12:31:50.995Z,76.45
2023-03-13T12:34:21.968Z,76.45
2023-03-13T12:36:52.480Z,76.01
2023-03-13T12:39:25.802Z,74.87
2023-03-13T12:42:00.257Z,73.91
2023-03-13T12:44:28.223Z,73.59
2023-03-13T12:47:02.377Z,73.46
2023-03-13T12:49:53.683Z,72.54
2023-03-13T12:52:33.867Z,72.11
2023-03-13T12:55:10.907Z,70.69
2023-03-13T12:58:01.911Z,69.49
2023-03-13T13:00:31.251Z,70.40
2023-03-13T13:03:12.018Z,70.44
2023-03-13T13:05:39.857Z,69.59
2023-03-13T13:08:22.951Z,69.41
2023-03-13T13:10:50.774Z,69.64
2023-03-13T13:13:20.947Z,68.61
2023-03-13T13:15:50.426Z,67.48
2023-03-13T13:18:26.962Z,66.25
2023-03-13T13:21:21.127Z,67.07
2023-03-13T13:23:53.852Z,67.47
2023-03-13T13:26:51.857Z,67.90
2023-03-13T13:29:59.464Z,68.54
2023-03-13T13:32:46.316Z,68.23
2023-03-13T13:35:30.692Z,67.80
2023-03-13T13:38:23.373Z,66.50
2023-03-13T13:41:03.372Z,66.81
2023-03-13T13:43:32.705Z,66.08
2023-03-13T13:46:08.916Z,65.75
2023-03-13T13:48:39.630Z,66.18
2023-03-13T13:51:37.033Z,66.30
2023-03-13T13:54:12.468Z,66.28
2023-03-13T13:56:43.506Z,66.40
2023-03-13T13:59:40.928Z,65.97
2023-03-13T14:02:16.575Z,65.81
2023-03-13T14:04:48.232Z,66.27
2023-03-13T14:07:19.362Z,66.09
2023-03-13T14:09:53.815Z,65.93
2023-03-13T14:12:27.335Z,66.49
2023-03-13T14:15:13.248Z,66.45
2023-03-13T14:17:42.812Z,65.81
2023-03-13T14:20:31.739Z,65.85
2023-03-13T14:23:02.638Z,66.74
2023-03-13T14:25:43.011Z,66.82
2023-03-13T14:28:24.240Z,66.71
2023-03-13T14:30:53.467Z,67.08
2023-03-13T14:33:21.560Z,67.10
2023-03-13T14:35:50.364Z,67.42
2023-03-13T14:38:21.640Z,67.54
2023-03-13T14:40:49.868Z,67.95
2023-03-13T14:43:22.270Z,67.80
2023-03-13T14:45:50.456Z,68.46
2023-03-13T14:48:22.010Z,68.50
2023-03-13T14:50:53.163Z,68.72
2023-03-13T14:53:26.846Z,68.77
2023-03-13T14:56:13.662Z,68.65
2023-03-13T14:58:41.449Z,68.26
2023-03-13T15:01:23.895Z,67.74
2023-03-13T15:03:52.956Z,68.05
2023-03-13T15:06:23.035Z,67.58
2023-03-13T15:09:16.550Z,67.70
2023-03-13T15:11:55.057Z,67.79
2023-03-13T15:14:38.766Z,67.97
2023-03-13T15:17:14.489Z,67.82
2023-03-13T15:19:42.506Z,67.92
2023-03-13T15:22:15.303Z,67.86
2023-03-13T15:24:53.145Z,67.59
2023-03-13T15:27:32.887Z,67.75
2023-03-13T15:30:00.736Z,67.56
2023-03-13T15:32:30.618Z,67.09
2023-03-13T15:35:00.542Z,66.71
2023-03-13T15:37:28.967Z,66.68
2023-03-13T15:39:58.634Z,66.95
2023-03-13T15:42:26.778Z,67.30
2023-03-13T15:44:54.631Z,67.79
2023-03-13T15:47:23.266Z,68.18
2023-03-13T15:49:51.162Z,68.04
2023-03-13T15:52:22.435Z,68.30
2023-03-13T15:54:50.869Z,68.54
2023-03-13T15:57:23.089Z,68.83
2023-03-13T15:59:51.009Z,69.20
2023-03-13T16:02:20.747Z,69.23
2023-03-13T16:04:48.904Z,69.30
2023-03-13T16:07:18.458Z,69.18
2023-03-13T16:09:46.444Z,69.74
2023-03-13T16:12:14.353Z,69.97
2023-03-13T16:14:43.605Z,70.63
2023-03-13T16:17:14.981Z,70.58
2023-03-13T16:19:43.009Z,70.72
2023-03-13T16:22:10.945Z,71.24
2023-03-13T16:24:38.999Z,71.37
2023-03-13T16:27:15.314Z,71.35
2023-03-13T16:29:44.695Z,71.35
2023-03-13T16:32:13.896Z,71.48
2023-03-13T16:34:42.245Z,71.51
2023-03-13T16:37:13.334Z,71.62
2023-03-13T16:39:41.482Z,71.88
2023-03-13T16:42:09.692Z,71.80
2023-03-13T16:44:37.753Z,71.61
2023-03-13T16:47:12.774Z,71.39
2023-03-13T16:49:40.603Z,71.84
2023-03-13T16:52:11.641Z,72.06
2023-03-13T16:54:40.228Z,71.76
2023-03-13T16:57:11.485Z,72.10
2023-03-13T16:59:39.600Z,71.90
2023-03-13T17:02:15.802Z,72.06
2023-03-13T17:04:44.851Z,72.48
2023-03-13T17:07:24.459Z,72.40
2023-03-13T17:09:53.637Z,72.27
2023-03-13T17:12:21.892Z,72.56
2023-03-13T17:14:49.681Z,72.45
2023-03-13T17:17:20.893Z,72.20
2023-03-13T17:19:48.790Z,72.09
2023-03-13T17:22:18.389Z,72.08
2023-03-13T17:24:46.182Z,72.26
2023-03-13T17:27:14.710Z,72.81
2023-03-13T17:29:42.918Z,72.94
2023-03-13T17:32:11.551Z,73.12
2023-03-13T17:34:41.124Z,72.89
2023-03-13T17:37:15.159Z,73.21
2023-03-13T17:39:43.597Z,72.99
2023-03-13T17:42:11.791Z,73.35
2023-03-13T17:44:41.062Z,73.34
2023-03-13T17:47:12.858Z,73.27
2023-03-13T17:49:42.494Z,73.45
2023-03-13T17:52:14.064Z,73.46
2023-03-13T17:54:42.583Z,73.68
2023-03-13T17:57:15.354Z,73.67
2023-03-13T17:59:43.333Z,73.89
2023-03-13T18:02:13.257Z,73.62
2023-03-13T18:04:43.008Z,74.17
2023-03-13T18:07:17.122Z,74.15
2023-03-13T18:09:47.580Z,73.92
2023-03-13T18:12:16.435Z,73.81
2023-03-13T18:14:45.030Z,74.09
2023-03-13T18:17:17.407Z,73.65
2023-03-13T18:19:46.849Z,73.90
2023-03-13T18:22:16.030Z,74.04
2023-03-13T18:24:44.483Z,74.21
2023-03-13T18:27:13.714Z,74.13
2023-03-13T18:29:42.385Z,74.26
2023-03-13T18:32:13.076Z,74.20
2023-03-13T18:34:42.038Z,74.10
2023-03-13T18:37:20.597Z,74.01
2023-03-13T18:39:49.908Z,73.85
2023-03-13T18:42:18.056Z,73.50
2023-03-13T18:44:45.877Z,73.73
2023-03-13T18:47:14.515Z,73.55
2023-03-13T18:49:42.436Z,73.65
2023-03-13T18:52:11.384Z,73.59
2023-03-13T18:54:41.453Z,73.66
2023-03-13T18:57:13.976Z,73.86
2023-03-13T18:59:41.915Z,73.96
2023-03-13T19:02:13.910Z,74.12
2023-03-13T19:04:41.800Z,74.09
2023-03-13T19:07:14.720Z,74.05
2023-03-13T19:09:46.420Z,74.22
2023-03-13T19:12:15.459Z,74.37
2023-03-13T19:14:43.552Z,74.61
2023-03-13T19:17:24.279Z,74.56
2023-03-13T19:19:57.659Z,74.70
2023-03-13T19:23:00.574Z,74.89
2023-03-13T19:25:30.359Z,74.98
2023-03-13T19:27:58.314Z,74.94
2023-03-13T19:30:27.510Z,75.28
2023-03-13T19:32:55.709Z,75.36
2023-03-13T19:35:23.666Z,75.57
2023-03-13T19:37:51.625Z,75.57
2023-03-13T19:40:21.477Z,75.73
2023-03-13T19:42:50.762Z,76.06
2023-03-13T19:45:20.475Z,75.50
2023-03-13T19:47:48.647Z,75.40
2023-03-13T19:50:19.126Z,75.65
2023-03-13T19:52:47.115Z,75.75
2023-03-13T19:55:15.255Z,75.96
2023-03-13T19:57:43.253Z,75.93
2023-03-13T20:00:19.189Z,76.12
2023-03-13T20:02:47.117Z,76.04
2023-03-13T20:05:15.155Z,76.33
2023-03-13T20:07:43.034Z,76.55
2023-03-13T20:10:12.039Z,76.29
2023-03-13T20:12:39.825Z,76.17
2023-03-13T20:15:09.390Z,76.56
2023-03-13T20:17:38.868Z,76.31
2023-03-13T20:20:08.418Z,76.84
2023-03-13T20:22:36.546Z,76.80
2023-03-13T20:25:04.754Z,76.99
2023-03-13T20:27:32.718Z,76.67
2023-03-13T20:30:00.682Z,76.88
2023-03-13T20:32:28.617Z,76.74
2023-03-13T20:34:57.893Z,76.81
2023-03-13T20:37:25.869Z,77.29
2023-03-13T20:39:53.715Z,77.05
2023-03-13T20:42:22.583Z,77.46
2023-03-13T20:44:50.525Z,77.39
2023-03-13T20:47:18.612Z,77.08
2023-03-13T20:49:46.710Z,77.37
2023-03-13T20:52:17.163Z,77.83
2023-03-13T20:54:48.413Z,77.54
2023-03-13T20:57:19.369Z,77.19
2023-03-13T20:59:47.424Z,76.65
2023-03-13T21:02:15.351Z,76.80
2023-03-13T21:04:43.258Z,76.69
2023-03-13T21:07:11.125Z,76.20
2023-03-13T21:09:40.580Z,76.15
2023-03-13T21:12:08.735Z,76.04
2023-03-13T21:14:37.258Z,75.86
2023-03-13T21:17:05.355Z,75.58
2023-03-13T21:19:34.139Z,75.36
2023-03-13T21:22:01.904Z,75.50
2023-03-13T21:24:29.806Z,75.01
2023-03-13T21:26:59.838Z,74.91
2023-03-13T21:29:28.143Z,74.64
2023-03-13T21:31:56.186Z,74.23
2023-03-13T21:34:24.757Z,74.41
2023-03-13T21:36:53.013Z,74.02
2023-03-13T21:39:21.152Z,73.92
2023-03-13T21:41:49.274Z,73.62
2023-03-13T21:44:19.621Z,73.73
2023-03-13T21:46:48.489Z,73.42
2023-03-13T21:49:16.671Z,73.14
2023-03-13T21:51:44.847Z,72.83
2023-03-13T21:54:13.164Z,72.51
2023-03-13T21:56:40.942Z,72.97
2023-03-13T21:59:08.925Z,72.50
2023-03-13T22:01:38.032Z,72.41
2023-03-13T22:04:06.049Z,72.77
2023-03-13T22:06:34.006Z,72.93
2023-03-13T22:09:03.340Z,72.31
2023-03-13T22:11:31.536Z,72.33
2023-03-13T22:13:59.424Z,72.36
2023-03-13T22:16:27.707Z,72.11
2023-03-13T22:18:57.008Z,72.28
2023-03-13T22:21:25.284Z,72.18
2023-03-13T22:23:53.239Z,72.29
2023-03-13T22:26:21.176Z,72.56
2023-03-13T22:28:50.180Z,72.48
2023-03-13T22:31:18.520Z,72.40
2023-03-13T22:33:46.405Z,72.43
2023-03-13T22:36:15.744Z,72.37
2023-03-13T22:38:43.697Z,72.62
2023-03-13T22:41:13.794Z,72.96
2023-03-13T22:43:41.650Z,72.56
2023-03-13T22:46:10.544Z,72.74
2023-03-13T22:48:38.787Z,73.00
2023-03-13T22:51:09.028Z,72.99
2023-03-13T22:53:40.182Z,72.72
2023-03-13T22:56:10.939Z,72.74
2023-03-13T22:58:39.058Z,72.55
2023-03-13T23:01:07.933Z,72.73
2023-03-13T23:03:36.117Z,72.71
2023-03-13T23:06:06.185Z,72.92
2023-03-13T23:08:34.312Z,72.91
2023-03-13T23:11:04.578Z,72.71
2023-03-13T23:13:33.035Z,72.95
2023-03-13T23:16:01.293Z,73.01
2023-03-13T23:18:29.267Z,73.25
2023-03-13T23:20:57.096Z,72.82
2023-03-13T23:23:25.000Z,73.06
2023-03-13T23:25:53.087Z,73.32
2023-03-13T23:28:22.384Z,73.44
2023-03-13T23:30:50.280Z,73.51
2023-03-13T23:33:18.204Z,73.32
2023-03-13T23:35:46.767Z,73.81
2023-03-13T23:38:18.136Z,73.48
2023-03-13T23:40:46.278Z,74.41
2023-03-13T23:43:14.037Z,74.30
2023-03-13T23:45:43.345Z,74.10
2023-03-13T23:48:11.209Z,73.96
2023-03-13T23:50:39.237Z,73.96
2023-03-13T23:53:07.983Z,74.30
2023-03-13T23:55:35.916Z,74.26
2023-03-13T23:58:03.957Z,74.24
